Huvudsida
METAR-TAF:

METAR-TAF

Flygplatser :

Honningsvågs flygplats. Valan

Honningsvåg, Norge

latitud: 71-01N, longitud: 025-59E, höjd: 1 m

Aktuellt väderrapport

Denna rapport gjordes för 3 timmar och 19 minuter sedan, klockan 05:20 UTC
Vind 25 kt från nordväst i byarna ända upp till 37 kt
Temperatur -4°C
Fuktighet 80%
Tryck 997 hPa
Sikt: 1000 m
snöbyar, småhagel eller snökorn, lågt snödrev

METAR: ENHV 220520Z 31025G37KT 1000 SHSNGS DRSN VV008 M04/M07 Q0997

Tid: 09:39 (08:39 UTC)


TAF: saknas

Aktuella väderrapporter och prognoser från 4000 flygplatser (METAR- och TAF-rapporter).

De tillgängliga stationerna syns som gula och röda prickar på kartan.

För musen över prickarna för att se namnen på stationerna.

Klicka sedan för att få väderrapporter och prognoser.

För att ändra kartan: Klicka på de gröna knapparna med ett svart kors på för att zooma in; den gröna knappen med ett streck på för att zooma ut; eller på de gröna pilarna för angränsande kartor.


METAR-TAF: